Bull Valley, Illinois
Current Conditions -  °F | °C
As of 5:04 PM on Tuesday 25 Nov 2014 (Local Time) from KUGN Reporting Station
Scattered Clouds Scattered Clouds  
Wind Chill: 13°   Ceiling: Unl
Heat Index: 21°   Visibility: 10mi
Dew Point: 14°   Wind: 6mph
Humidity: 74%   Direction: NA
Pressure: 30.13"   Gusts: NA
Location:  42.359°N, 88.2783°W
Report Text: KUGN 252304Z VRB05KT 10SM SCT018 M06/M10 A3013 RMK AO2 T10611100
Loading
Personal Weather Stations






























Interactive Weather Map New forecast layout! Learn more

10-Day Weather Forecast

Advertisements
Track Severe Weather on mobile